Time;durP1;ratioP1;P1;durP2;ratioP2;P2;SDS_P1;SDS_P2;PMS_P1;PMS_P2;Temp;Humidity;BMP_temperature;BMP_pressure;BME280_temperature;BME280_humidity;BME280_pressure;Samples;Min_cycle;Max_cycle;Signal;HPM_P1;HPM_P2
2024/01/31 00:01:21;;;;;;;6.97;1.38;;;5.50;99.90;;;;;;5023213;28;20103;-58
2024/01/31 00:03:47;;;;;;;7.43;1.25;;;;;;;;;;5025979;28;20486;-58
2024/01/31 00:06:14;;;;;;;4.63;1.13;;;;;;;;;;5018770;28;20029;-58
2024/01/31 00:08:40;;;;;;;6.78;2.28;;;;;;;;;;5025316;28;20100;-57
2024/01/31 00:11:08;;;;;;;8.27;1.15;;;;;;;;;;5028289;28;20037;-57
2024/01/31 00:13:34;;;;;;;5.45;1.50;;;5.70;87.80;;;;;;5020061;28;20441;-58
2024/01/31 00:16:00;;;;;;;6.32;1.23;;;;;;;;;;5027692;28;20045;-59
2024/01/31 00:18:26;;;;;;;7.47;1.15;;;;;;;;;;5026163;28;20489;-58
2024/01/31 00:20:52;;;;;;;4.50;1.13;;;;;;;;;;5021279;28;20072;-58
2024/01/31 00:23:19;;;;;;;7.30;1.50;;;;;;;;;;5024836;28;20727;-59
2024/01/31 00:25:45;;;;;;;5.53;1.63;;;;;;;;;;5022836;28;20033;-58
2024/01/31 00:28:12;;;;;;;3.63;1.20;;;5.40;22.40;;;;;;5019252;28;20096;-59
2024/01/31 00:30:38;;;;;;;7.35;1.35;;;5.50;66.50;;;;;;5022191;28;20060;-59
2024/01/31 00:33:04;;;;;;;6.93;1.20;;;5.50;11.70;;;;;;5023502;28;20055;-59
2024/01/31 00:35:30;;;;;;;5.47;1.10;;;5.50;51.50;;;;;;5023570;28;20064;-58
2024/01/31 00:37:56;;;;;;;4.35;1.02;;;;;;;;;;5130916;23;20421;-65
2024/01/31 00:40:22;;;;;;;6.75;1.35;;;;;;;;;;5028439;28;20108;-65
2024/01/31 00:42:48;;;;;;;6.10;1.25;;;;;;;;;;5029359;28;20033;-66
2024/01/31 00:45:14;;;;;;;8.55;1.38;;;;;;;;;;5029477;28;20489;-65
2024/01/31 00:47:40;;;;;;;7.43;1.33;;;;;;;;;;5027820;28;20167;-64
2024/01/31 00:50:07;;;;;;;5.72;1.10;;;;;;;;;;5023217;28;20108;-65
2024/01/31 00:52:33;;;;;;;6.40;1.13;;;;;;;;;;5025947;28;20119;-65
2024/01/31 00:54:59;;;;;;;6.93;1.25;;;;;;;;;;5031700;28;20072;-64
2024/01/31 00:57:24;;;;;;;4.53;1.10;;;5.20;1.00;;;;;;5031850;28;20110;-64
2024/01/31 00:59:50;;;;;;;6.53;1.02;;;;;;;;;;5026655;28;20564;-65
2024/01/31 01:02:16;;;;;;;4.25;0.95;;;5.00;99.90;;;;;;5027611;28;20037;-64
2024/01/31 01:04:43;;;;;;;7.18;1.48;;;;;;;;;;5028719;28;20046;-65
2024/01/31 01:07:09;;;;;;;4.38;1.15;;;;;;;;;;5027212;28;20049;-64
2024/01/31 01:09:37;;;;;;;5.63;1.20;;;4.70;99.90;;;;;;5026578;28;20041;-65
2024/01/31 01:12:03;;;;;;;6.90;1.30;;;5.00;99.90;;;;;;5024888;28;20045;-64
2024/01/31 01:14:29;;;;;;;7.80;1.58;;;;;;;;;;5028458;28;20060;-65
2024/01/31 01:16:55;;;;;;;4.18;1.10;;;;;;;;;;5028754;28;20048;-64
2024/01/31 01:19:21;;;;;;;7.72;1.50;;;;;;;;;;5029421;28;20428;-64
2024/01/31 01:21:47;;;;;;;5.03;1.35;;;;;;;;;;5024527;28;20041;-65
2024/01/31 01:24:13;;;;;;;4.85;1.50;;;;;;;;;;5028180;28;20037;-65
2024/01/31 01:26:40;;;;;;;6.80;1.35;;;;;;;;;;5028662;28;20091;-64
2024/01/31 01:29:07;;;;;;;5.57;1.30;;;;;;;;;;5028750;28;20029;-64
2024/01/31 01:31:32;;;;;;;6.70;1.20;;;;;;;;;;5022091;28;20045;-64
2024/01/31 01:34:01;;;;;;;5.38;1.30;;;4.80;99.90;;;;;;5027799;28;20029;-64
2024/01/31 01:36:27;;;;;;;10.52;2.03;;;;;;;;;;5027718;28;20037;-64
2024/01/31 01:38:53;;;;;;;6.53;1.38;;;;;;;;;;5029020;28;20060;-65
2024/01/31 01:41:19;;;;;;;7.72;1.38;;;;;;;;;;5025472;28;20037;-64
2024/01/31 01:43:46;;;;;;;10.55;1.50;;;;;;;;;;5026973;28;20084;-65
2024/01/31 01:46:13;;;;;;;7.90;1.27;;;;;;;;;;5027246;28;20044;-64
2024/01/31 01:48:40;;;;;;;4.40;1.20;;;4.90;99.90;;;;;;5027902;28;20044;-65
2024/01/31 01:51:07;;;;;;;7.55;1.38;;;;;;;;;;5024496;28;20030;-64
2024/01/31 01:53:38;;;;;;;6.32;1.30;;;5.10;99.90;;;;;;5025042;28;20408;-64
2024/01/31 01:56:04;;;;;;;12.70;1.73;;;4.70;99.90;;;;;;5025227;28;20044;-65
2024/01/31 01:58:34;;;;;;;5.93;1.50;;;;;;;;;;5028022;28;20092;-64
2024/01/31 02:01:01;;;;;;;5.07;1.75;;;;;;;;;;5028466;28;20044;-64
2024/01/31 02:03:29;;;;;;;7.15;1.20;;;;;;;;;;5028552;28;20140;-64
2024/01/31 02:06:03;;;;;;;6.30;1.55;;;4.70;1.00;;;;;;5028273;28;20052;-64
2024/01/31 02:08:29;;;;;;;7.18;1.77;;;;;;;;;;5023564;28;20048;-65
2024/01/31 02:10:56;;;;;;;6.30;1.83;;;;;;;;;;5029859;28;20065;-64
2024/01/31 02:13:22;;;;;;;6.97;2.72;;;;;;;;;;5043676;28;20041;-64
2024/01/31 02:15:55;;;;;;;10.35;1.70;;;;;;;;;;5028114;28;20038;-65
2024/01/31 02:18:22;;;;;;;5.95;1.40;;;;;;;;;;5027305;28;20050;-65
2024/01/31 02:20:48;;;;;;;7.50;1.60;;;;;;;;;;5027547;28;20033;-64
2024/01/31 02:23:14;;;;;;;8.60;1.45;;;;;;;;;;5028126;28;20069;-64
2024/01/31 02:25:40;;;;;;;7.90;1.83;;;;;;;;;;5027087;28;20267;-64
2024/01/31 02:28:06;;;;;;;6.75;1.30;;;;;;;;;;5028379;28;20112;-64
2024/01/31 02:30:32;;;;;;;9.02;2.08;;;;;;;;;;5027395;28;20382;-64
2024/01/31 02:32:58;;;;;;;4.43;1.33;;;4.80;1.00;;;;;;5029062;28;20030;-65
2024/01/31 02:35:27;;;;;;;5.70;1.75;;;;;;;;;;5032250;28;20424;-64
2024/01/31 02:37:52;;;;;;;5.78;1.40;;;4.90;1.00;;;;;;5031542;28;20045;-64
2024/01/31 02:40:18;;;;;;;6.90;1.50;;;4.80;1.00;;;;;;5031564;28;20099;-64
2024/01/31 02:42:44;;;;;;;6.07;1.48;;;4.90;1.00;;;;;;5030891;28;20120;-64
2024/01/31 02:45:10;;;;;;;8.18;1.30;;;;;;;;;;5031824;28;20497;-64
2024/01/31 02:47:36;;;;;;;4.55;1.25;;;4.80;1.00;;;;;;5030782;28;20057;-65
2024/01/31 02:50:03;;;;;;;7.32;1.33;;;4.70;1.00;;;;;;5031445;28;20055;-64
2024/01/31 02:52:29;;;;;;;5.97;1.10;;;4.80;1.00;;;;;;5030458;28;20040;-64
2024/01/31 02:54:56;;;;;;;6.88;1.70;;;;;;;;;;5031701;28;20390;-64
2024/01/31 02:57:22;;;;;;;8.02;1.40;;;;;;;;;;5031889;28;20412;-64
2024/01/31 02:59:47;;;;;;;6.20;1.85;;;4.70;99.90;;;;;;5031249;28;20029;-64
2024/01/31 03:02:17;;;;;;;4.40;1.20;;;;;;;;;;5031199;28;20056;-64
2024/01/31 03:04:44;;;;;;;8.63;1.30;;;4.60;1.00;;;;;;5030805;28;20033;-64
2024/01/31 03:07:10;;;;;;;5.82;1.30;;;;;;;;;;5030079;28;20033;-64
2024/01/31 03:09:36;;;;;;;4.57;1.23;;;4.60;1.00;;;;;;5029029;28;20056;-64
2024/01/31 03:12:04;;;;;;;6.85;1.08;;;;;;;;;;5031976;28;20119;-64
2024/01/31 03:14:31;;;;;;;6.85;1.50;;;4.80;1.00;;;;;;5019992;28;20049;-64
2024/01/31 03:16:56;;;;;;;6.32;1.40;;;4.90;1.00;;;;;;5027044;28;20116;-64
2024/01/31 03:19:22;;;;;;;6.50;1.30;;;;;;;;;;5020049;28;20465;-65
2024/01/31 03:21:49;;;;;;;7.75;1.00;;;;;;;;;;5026025;28;20448;-65
2024/01/31 03:24:15;;;;;;;8.15;1.83;;;;;;;;;;5019562;28;20689;-64
2024/01/31 03:26:41;;;;;;;4.60;1.05;;;;;;;;;;5027239;28;20049;-64
2024/01/31 03:29:08;;;;;;;5.47;1.30;;;;;;;;;;5027217;28;20041;-65
2024/01/31 03:31:34;;;;;;;5.13;1.20;;;;;;;;;;5027581;28;20065;-64
2024/01/31 03:34:00;;;;;;;4.05;0.98;;;;;;;;;;5025838;28;20425;-64
2024/01/31 03:36:26;;;;;;;3.70;1.20;;;;;;;;;;5028105;28;20091;-65
2024/01/31 03:38:54;;;;;;;6.40;1.63;;;;;;;;;;5026567;28;20081;-65
2024/01/31 03:41:20;;;;;;;7.28;1.50;;;;;;;;;;5029656;28;20350;-64
2024/01/31 03:43:46;;;;;;;5.57;1.33;;;;;;;;;;5028573;28;20049;-64
2024/01/31 03:46:12;;;;;;;5.80;1.50;;;5.20;1.00;;;;;;5029951;28;20049;-64
2024/01/31 03:48:38;;;;;;;5.50;1.13;;;;;;;;;;5030016;28;20041;-64
2024/01/31 03:51:04;;;;;;;5.55;1.40;;;;;;;;;;5029419;28;20034;-65
2024/01/31 03:53:30;;;;;;;3.63;1.02;;;;;;;;;;5029385;28;20045;-65
2024/01/31 03:55:56;;;;;;;5.60;1.40;;;5.10;1.00;;;;;;5028075;28;20044;-65
2024/01/31 03:58:22;;;;;;;5.93;1.50;;;;;;;;;;5029413;28;20084;-65
2024/01/31 04:00:48;;;;;;;6.00;1.42;;;;;;;;;;5029504;28;20049;-65
2024/01/31 04:03:14;;;;;;;4.25;1.20;;;4.80;1.00;;;;;;5029616;28;20034;-65
2024/01/31 04:05:40;;;;;;;6.57;1.35;;;;;;;;;;5029531;28;20087;-65
2024/01/31 04:08:06;;;;;;;7.68;1.20;;;;;;;;;;5029853;28;20065;-66
2024/01/31 04:10:32;;;;;;;6.38;1.70;;;;;;;;;;5029924;28;20505;-66
2024/01/31 04:12:58;;;;;;;6.90;1.50;;;;;;;;;;5028549;28;20120;-66
2024/01/31 04:15:24;;;;;;;7.07;1.50;;;;;;;;;;5029558;28;20441;-65
2024/01/31 04:17:50;;;;;;;6.65;1.40;;;;;;;;;;5029258;28;20091;-64
2024/01/31 04:20:16;;;;;;;6.05;1.88;;;5.10;1.00;;;;;;5029848;28;20033;-65
2024/01/31 04:22:42;;;;;;;8.10;1.70;;;;;;;;;;5029722;28;20037;-66
2024/01/31 04:25:08;;;;;;;7.00;1.38;;;;;;;;;;5028027;28;20042;-65
2024/01/31 04:27:34;;;;;;;8.75;1.40;;;;;;;;;;5028502;28;20037;-65
2024/01/31 04:30:00;;;;;;;7.97;1.58;;;;;;;;;;5028348;28;20183;-64
2024/01/31 04:32:26;;;;;;;8.88;1.50;;;;;;;;;;5029669;28;20408;-65
2024/01/31 04:34:51;;;;;;;5.30;1.55;;;5.10;1.00;;;;;;5029470;28;20075;-65
2024/01/31 04:37:17;;;;;;;9.82;1.80;;;5.00;1.00;;;;;;5029339;28;20124;-65
2024/01/31 04:39:44;;;;;;;5.47;1.65;;;;;;;;;;5023012;28;20049;-66
2024/01/31 04:42:09;;;;;;;7.00;1.75;;;5.10;1.00;;;;;;5021672;28;20029;-65
2024/01/31 04:44:35;;;;;;;8.45;1.70;;;;;;;;;;5025058;28;20041;-65
2024/01/31 04:47:02;;;;;;;6.80;1.58;;;;;;;;;;5032210;28;20046;-65
2024/01/31 04:49:29;;;;;;;13.55;1.98;;;;;;;;;;5028311;28;20041;-65
2024/01/31 04:51:54;;;;;;;11.55;1.90;;;5.20;1.00;;;;;;5026151;28;20041;-65
2024/01/31 04:54:20;;;;;;;9.43;2.00;;;;;;;;;;5029633;28;20030;-65
2024/01/31 04:56:46;;;;;;;8.70;1.90;;;;;;;;;;5028687;28;20041;-65
2024/01/31 04:59:12;;;;;;;10.88;2.15;;;;;;;;;;5028827;28;20045;-65
2024/01/31 05:01:38;;;;;;;8.40;1.70;;;;;;;;;;5029421;28;20095;-65
2024/01/31 05:04:04;;;;;;;7.72;1.80;;;;;;;;;;5028504;28;20041;-65
2024/01/31 05:06:30;;;;;;;10.32;3.97;;;4.90;1.00;;;;;;5029483;28;20080;-65
2024/01/31 05:08:56;;;;;;;8.80;2.13;;;;;;;;;;5028618;28;20120;-65
2024/01/31 05:11:22;;;;;;;11.88;1.90;;;;;;;;;;5028513;28;20471;-65
2024/01/31 05:13:48;;;;;;;8.85;2.10;;;;;;;;;;5028204;28;20041;-65
2024/01/31 05:16:14;;;;;;;9.13;2.03;;;;;;;;;;5027469;28;20037;-65
2024/01/31 05:18:40;;;;;;;10.00;2.05;;;;;;;;;;5027767;28;20420;-65
2024/01/31 05:21:10;;;;;;;9.40;2.45;;;;;;;;;;5027857;28;20087;-65
2024/01/31 05:23:36;;;;;;;8.88;2.00;;;;;;;;;;5028424;28;20045;-65
2024/01/31 05:26:07;;;;;;;18.92;5.18;;;3.90;1.00;;;;;;5027671;28;20045;-64
2024/01/31 05:28:33;;;;;;;9.98;1.80;;;4.30;1.00;;;;;;5029289;28;20092;-64
2024/01/31 05:30:59;;;;;;;8.27;1.88;;;;;;;;;;5028110;28;20220;-64
2024/01/31 05:33:25;;;;;;;9.30;2.15;;;4.40;1.00;;;;;;5028061;28;20107;-65
2024/01/31 05:35:51;;;;;;;11.23;1.70;;;;;;;;;;5027680;28;20040;-65
2024/01/31 05:38:17;;;;;;;8.45;2.33;;;;;;;;;;5027627;28;20083;-65
2024/01/31 05:40:44;;;;;;;8.23;2.08;;;;;;;;;;5028084;28;20041;-64
2024/01/31 05:43:10;;;;;;;7.05;1.83;;;4.20;1.00;;;;;;5026152;28;20061;-64
2024/01/31 05:45:37;;;;;;;11.20;1.90;;;4.20;1.00;;;;;;5028977;28;20049;-64
2024/01/31 05:48:03;;;;;;;9.82;1.70;;;4.10;1.00;;;;;;5028087;28;20034;-64
2024/01/31 05:50:29;;;;;;;8.77;2.30;;;;;;;;;;5027734;28;20620;-64
2024/01/31 05:52:56;;;;;;;13.13;2.03;;;;;;;;;;5025841;28;20029;-64
2024/01/31 05:55:21;;;;;;;8.88;1.90;;;4.00;1.00;;;;;;5028099;28;20573;-64
2024/01/31 05:57:48;;;;;;;7.07;2.55;;;;;;;;;;5028229;28;20113;-65
2024/01/31 06:00:15;;;;;;;8.27;2.00;;;;;;;;;;5024762;28;20509;-65
2024/01/31 06:02:40;;;;;;;9.38;1.80;;;4.00;1.00;;;;;;5035747;28;20475;-65
2024/01/31 06:05:06;;;;;;;8.25;1.73;;;3.90;1.00;;;;;;5027124;28;20116;-65
2024/01/31 06:07:32;;;;;;;9.43;1.77;;;4.00;1.00;;;;;;5028225;28;20399;-65
2024/01/31 06:09:58;;;;;;;6.80;1.90;;;;;;;;;;5030461;28;20092;-66
2024/01/31 06:12:24;;;;;;;6.05;1.55;;;;;;;;;;5024331;28;20029;-64
2024/01/31 06:14:50;;;;;;;10.68;2.00;;;;;;;;;;5026457;28;20037;-64
2024/01/31 06:17:17;;;;;;;7.35;2.10;;;;;;;;;;5023611;28;20041;-64
2024/01/31 06:19:43;;;;;;;12.45;2.50;;;4.00;1.00;;;;;;5017929;28;20072;-64
2024/01/31 06:22:09;;;;;;;6.57;2.08;;;;;;;;;;5022003;28;20152;-65
2024/01/31 06:24:36;;;;;;;8.50;1.95;;;;;;;;;;5029321;28;20413;-65
2024/01/31 06:27:02;;;;;;;7.15;2.10;;;;;;;;;;5019661;28;20497;-65
2024/01/31 06:29:28;;;;;;;10.30;2.13;;;;;;;;;;5025938;28;20408;-64
2024/01/31 06:31:59;;;;;;;6.47;2.13;;;;;;;;;;5018753;28;20084;-65
2024/01/31 06:34:25;;;;;;;6.88;1.80;;;;;;;;;;5020661;28;20045;-65
2024/01/31 06:36:52;;;;;;;7.35;2.03;;;;;;;;;;5026529;28;20067;-65
2024/01/31 06:39:18;;;;;;;14.65;2.40;;;;;;;;;;5101199;22;20045;-57
2024/01/31 06:41:44;;;;;;;5.57;1.85;;;;;;;;;;5027767;28;21089;-59
2024/01/31 06:44:11;;;;;;;6.30;2.08;;;;;;;;;;5016925;28;20069;-59
2024/01/31 06:46:37;;;;;;;10.20;2.15;;;;;;;;;;5023055;28;20048;-57
2024/01/31 06:49:03;;;;;;;10.45;2.95;;;;;;;;;;5023770;28;20139;-58
2024/01/31 06:51:29;;;;;;;7.57;2.40;;;;;;;;;;5011700;28;20034;-58
2024/01/31 06:53:55;;;;;;;6.90;1.73;;;;;;;;;;5021745;28;20135;-58
2024/01/31 06:56:21;;;;;;;5.35;1.70;;;;;;;;;;5012716;28;20041;-58
2024/01/31 06:58:49;;;;;;;7.68;2.00;;;4.80;99.90;;;;;;5012366;28;20037;-59
2024/01/31 07:01:19;;;;;;;7.13;3.50;;;4.20;99.90;;;;;;5021791;28;20069;-58
2024/01/31 07:03:45;;;;;;;10.95;2.00;;;;;;;;;;5040557;28;20121;-58
2024/01/31 07:06:12;;;;;;;7.93;2.17;;;;;;;;;;5014119;28;20060;-57
2024/01/31 07:08:39;;;;;;;6.53;2.30;;;;;;;;;;5025228;28;20061;-58
2024/01/31 07:11:09;;;;;;;9.57;2.53;;;;;;;;;;5021116;28;20037;-58
2024/01/31 07:13:40;;;;;;;6.47;3.55;;;;;;;;;;5016996;28;20045;-59
2024/01/31 07:16:09;;;;;;;8.18;3.38;;;;;;;;;;5004351;28;20069;-59
2024/01/31 07:18:44;;;;;;;11.27;2.92;;;;;;;;;;5009443;28;20056;-58
2024/01/31 07:21:11;;;;;;;6.78;2.95;;;;;;;;;;5007605;28;20091;-59
2024/01/31 07:23:38;;;;;;;7.28;3.38;;;;;;;;;;5005139;28;20034;-59
2024/01/31 07:26:04;;;;;;;8.57;3.47;;;;;;;;;;5006642;28;20133;-59
2024/01/31 07:28:31;;;;;;;7.93;3.47;;;;;;;;;;5014861;28;20612;-59
2024/01/31 07:30:57;;;;;;;10.23;3.40;;;;;;;;;;5006324;28;20385;-58
2024/01/31 07:33:23;;;;;;;6.82;3.00;;;;;;;;;;5009818;28;20044;-59
2024/01/31 07:35:49;;;;;;;6.25;3.40;;;;;;;;;;5000431;28;20426;-59
2024/01/31 07:38:15;;;;;;;7.47;3.00;;;;;;;;;;5000436;28;20057;-59
2024/01/31 07:40:41;;;;;;;7.22;3.38;;;;;;;;;;5001242;28;20046;-58
2024/01/31 07:43:07;;;;;;;8.25;3.33;;;;;;;;;;5000173;28;20061;-59
2024/01/31 07:45:33;;;;;;;7.00;3.65;;;;;;;;;;4998656;28;20042;-59
2024/01/31 07:47:59;;;;;;;8.77;3.88;;;;;;;;;;5001605;28;20406;-59
2024/01/31 07:50:25;;;;;;;9.20;4.28;;;;;;;;;;5000265;28;20142;-59
2024/01/31 07:52:52;;;;;;;9.15;4.13;;;;;;;;;;5008807;28;20506;-59
2024/01/31 07:55:18;;;;;;;10.60;5.03;;;;;;;;;;5006508;28;20566;-59
2024/01/31 07:57:44;;;;;;;10.07;4.32;;;;;;;;;;5011971;28;20145;-59
2024/01/31 08:00:10;;;;;;;7.40;4.90;;;;;;;;;;5008552;28;20072;-59
2024/01/31 08:02:36;;;;;;;7.47;3.60;;;;;;;;;;5008377;28;20037;-59
2024/01/31 08:05:02;;;;;;;9.13;3.72;;;;;;;;;;5010883;28;20064;-59
2024/01/31 08:07:28;;;;;;;8.50;4.43;;;;;;;;;;5012439;28;20084;-59
2024/01/31 08:09:57;;;;;;;9.52;4.63;;;;;;;;;;5014986;28;20052;-58
2024/01/31 08:12:23;;;;;;;10.60;4.10;;;;;;;;;;5009637;28;20056;-59
2024/01/31 08:14:49;;;;;;;8.30;5.00;;;;;;;;;;5013284;28;20124;-59
2024/01/31 08:17:15;;;;;;;9.65;4.40;;;;;;;;;;5002774;28;20046;-59
2024/01/31 08:19:41;;;;;;;7.03;4.13;;;;;;;;;;5014571;28;20045;-59
2024/01/31 08:22:08;;;;;;;8.25;4.50;;;;;;;;;;5006784;28;20455;-59
2024/01/31 08:24:34;;;;;;;8.55;4.55;;;;;;;;;;5013230;28;20048;-59
2024/01/31 08:27:00;;;;;;;9.30;5.28;;;;;;;;;;5014922;28;20041;-59
2024/01/31 08:29:26;;;;;;;13.02;6.50;;;;;;;;;;5004673;28;20157;-59
2024/01/31 08:31:51;;;;;;;10.43;5.70;;;;;;;;;;5011064;28;20124;-59
2024/01/31 08:34:18;;;;;;;12.02;6.38;;;;;;;;;;5007759;28;20100;-59
2024/01/31 08:36:44;;;;;;;11.32;6.03;;;;;;;;;;5011299;28;21430;-59
2024/01/31 08:39:10;;;;;;;12.45;6.68;;;;;;;;;;5003621;28;20101;-59
2024/01/31 08:41:36;;;;;;;9.95;6.07;;;;;;;;;;5010578;28;20080;-59
2024/01/31 08:44:02;;;;;;;12.45;6.20;;;;;;;;;;5012402;28;20033;-59
2024/01/31 08:46:28;;;;;;;11.85;6.80;;;;;;;;;;5009400;28;20077;-59
2024/01/31 08:48:54;;;;;;;11.57;6.25;;;;;;;;;;5004568;28;20034;-59
2024/01/31 08:51:20;;;;;;;11.45;6.57;;;;;;;;;;5009944;28;20038;-61
2024/01/31 08:53:47;;;;;;;14.50;8.02;;;;;;;;;;5008013;28;20041;-58
2024/01/31 08:56:12;;;;;;;10.75;7.35;;;;;;;;;;5005970;28;20354;-59
2024/01/31 08:58:39;;;;;;;11.85;7.30;;;5.60;99.90;;;;;;5014671;28;20061;-59
2024/01/31 09:01:05;;;;;;;10.50;7.03;;;5.60;99.90;;;;;;5007023;28;20041;-59
2024/01/31 09:03:31;;;;;;;16.23;7.68;;;;;;;;;;5007285;28;20041;-59
2024/01/31 09:05:57;;;;;;;10.77;7.22;;;;;;;;;;5015145;28;20037;-59
2024/01/31 09:08:23;;;;;;;11.60;6.63;;;;;;;;;;5010275;28;20417;-59
2024/01/31 09:10:49;;;;;;;11.50;7.35;;;;;;;;;;5005651;28;20042;-59
2024/01/31 09:13:15;;;;;;;10.95;6.88;;;;;;;;;;5001577;28;20038;-59
2024/01/31 09:15:41;;;;;;;12.18;7.07;;;;;;;;;;5012503;28;20108;-59
2024/01/31 09:18:07;;;;;;;12.15;7.15;;;;;;;;;;5007194;28;20068;-59
2024/01/31 09:20:33;;;;;;;12.13;7.80;;;;;;;;;;5000299;28;20216;-59
2024/01/31 09:22:59;;;;;;;12.77;7.15;;;;;;;;;;5006224;28;20438;-59
2024/01/31 09:25:25;;;;;;;12.88;7.88;;;;;;;;;;5007188;28;20126;-59
2024/01/31 09:27:51;;;;;;;12.57;7.70;;;;;;;;;;5007195;28;20141;-59
2024/01/31 09:30:17;;;;;;;11.93;7.35;;;;;;;;;;5029656;28;20034;-59
2024/01/31 09:32:43;;;;;;;12.00;7.05;;;;;;;;;;5009153;28;20042;-58
2024/01/31 09:35:09;;;;;;;12.13;7.00;;;6.10;99.90;;;;;;5031016;28;20119;-59
2024/01/31 09:37:35;;;;;;;12.77;7.45;;;;;;;;;;5007412;28;20065;-59
2024/01/31 09:40:01;;;;;;;13.02;7.63;;;;;;;;;;5013805;28;20038;-59
2024/01/31 09:42:27;;;;;;;12.57;7.40;;;;;;;;;;5012382;28;20033;-59
2024/01/31 09:44:55;;;;;;;11.38;7.15;;;;;;;;;;5014420;28;20037;-59
2024/01/31 09:47:24;;;;;;;11.30;7.13;;;;;;;;;;5015004;28;20073;-59
2024/01/31 09:49:50;;;;;;;12.93;7.30;;;;;;;;;;5019655;28;21024;-59
2024/01/31 09:52:18;;;;;;;13.30;7.13;;;;;;;;;;5018160;28;20068;-59
2024/01/31 09:54:46;;;;;;;14.80;8.30;;;;;;;;;;5010026;28;20048;-58
2024/01/31 09:57:12;;;;;;;12.25;7.43;;;;;;;;;;5008472;28;20073;-59
2024/01/31 09:59:39;;;;;;;11.95;7.32;;;;;;;;;;5015350;28;20414;-59
2024/01/31 10:02:06;;;;;;;10.38;6.35;;;;;;;;;;5011403;28;20185;-59
2024/01/31 10:04:32;;;;;;;10.98;6.60;;;;;;;;;;5010996;28;20073;-59
2024/01/31 10:06:59;;;;;;;22.27;6.80;;;;;;;;;;5018131;28;20092;-59
2024/01/31 10:09:25;;;;;;;10.98;7.05;;;;;;;;;;5020635;28;20301;-59
2024/01/31 10:11:53;;;;;;;11.35;6.57;;;6.70;99.90;;;;;;5018449;28;20045;-59
2024/01/31 10:14:19;;;;;;;11.57;7.35;;;;;;;;;;5019974;28;20124;-59
2024/01/31 10:16:45;;;;;;;13.10;6.90;;;;;;;;;;5013622;28;20496;-59
2024/01/31 10:19:11;;;;;;;12.57;6.90;;;;;;;;;;5011314;28;20037;-59
2024/01/31 10:21:37;;;;;;;10.88;7.38;;;;;;;;;;5015387;28;20049;-59
2024/01/31 10:24:04;;;;;;;14.02;7.88;;;;;;;;;;5017016;28;20046;-58
2024/01/31 10:26:30;;;;;;;11.73;6.70;;;;;;;;;;5014500;28;20038;-59
2024/01/31 10:28:58;;;;;;;12.55;6.72;;;;;;;;;;5013920;28;20034;-59
2024/01/31 10:31:24;;;;;;;11.18;6.78;;;;;;;;;;5012750;28;20497;-59
2024/01/31 10:33:50;;;;;;;12.10;7.13;;;;;;;;;;5016114;28;20188;-59
2024/01/31 10:36:17;;;;;;;12.93;7.00;;;;;;;;;;5019168;28;20199;-59
2024/01/31 10:38:43;;;;;;;10.68;6.85;;;;;;;;;;5011874;28;20713;-60
2024/01/31 10:41:11;;;;;;;10.55;6.25;;;6.60;99.90;;;;;;5014513;28;20065;-59
2024/01/31 10:43:37;;;;;;;10.65;6.55;;;;;;;;;;5017650;28;20033;-58
2024/01/31 10:46:03;;;;;;;12.35;6.93;;;;;;;;;;5015208;28;20128;-59
2024/01/31 10:48:29;;;;;;;12.82;6.55;;;;;;;;;;5006402;28;20072;-59
2024/01/31 10:50:56;;;;;;;9.75;6.20;;;;;;;;;;5015124;28;20040;-60
2024/01/31 10:53:23;;;;;;;11.32;6.25;;;;;;;;;;5018955;28;20145;-59
2024/01/31 10:55:50;;;;;;;9.98;5.50;;;;;;;;;;5016770;28;20047;-59
2024/01/31 10:58:16;;;;;;;9.63;5.75;;;;;;;;;;5012499;28;20052;-59
2024/01/31 11:00:46;;;;;;;10.00;6.22;;;7.20;99.90;;;;;;5010916;28;20065;-59
2024/01/31 11:03:13;;;;;;;10.05;5.88;;;;;;;;;;5018315;28;20050;-59
2024/01/31 11:05:40;;;;;;;10.07;5.43;;;;;;;;;;5019348;28;20135;-59
2024/01/31 11:08:16;;;;;;;9.65;5.57;;;;;;;;;;5033045;28;20053;-59
2024/01/31 11:10:42;;;;;;;9.10;5.10;;;;;;;;;;5012906;28;20681;-59
2024/01/31 11:13:09;;;;;;;9.75;5.78;;;;;;;;;;5018717;28;20516;-59
2024/01/31 11:15:36;;;;;;;9.60;5.03;;;;;;;;;;5017054;28;20335;-59
2024/01/31 11:18:09;;;;;;;11.35;6.35;;;;;;;;;;5019274;28;20099;-59
2024/01/31 11:20:45;;;;;;;9.90;5.50;;;;;;;;;;5013022;28;20657;-59
2024/01/31 11:23:15;;;;;;;8.60;4.75;;;;;;;;;;5012086;28;20515;-59
2024/01/31 11:25:42;;;;;;;10.45;5.00;;;;;;;;;;5012796;28;20045;-59
2024/01/31 11:28:10;;;;;;;8.65;4.60;;;;;;;;;;5014312;28;20044;-59
2024/01/31 11:30:36;;;;;;;9.43;5.63;;;;;;;;;;5005501;28;20034;-59
2024/01/31 11:33:03;;;;;;;9.13;5.03;;;;;;;;;;5018123;28;20043;-59
2024/01/31 11:35:29;;;;;;;8.65;5.03;;;;;;;;;;5009119;28;20465;-59
2024/01/31 11:38:15;;;;;;;10.32;5.97;;;;;;;;;;5019961;28;20060;-59
2024/01/31 11:40:42;;;;;;;9.15;5.28;;;;;;;;;;5015002;28;20041;-59
2024/01/31 11:43:08;;;;;;;7.85;4.75;;;;;;;;;;5006192;28;20092;-59
2024/01/31 11:45:34;;;;;;;8.68;5.00;;;;;;;;;;5011489;28;20041;-59
2024/01/31 11:48:00;;;;;;;8.60;4.88;;;;;;;;;;5013977;28;20120;-59
2024/01/31 11:50:26;;;;;;;11.20;6.47;;;;;;;;;;5013343;28;20129;-59
2024/01/31 11:52:53;;;;;;;9.80;5.63;;;;;;;;;;5016341;28;20041;-59
2024/01/31 11:55:22;;;;;;;11.68;5.47;;;;;;;;;;5010191;28;20048;-59
2024/01/31 11:57:49;;;;;;;9.30;5.22;;;;;;;;;;5011149;28;21227;-59
2024/01/31 12:00:17;;;;;;;9.95;5.43;;;6.80;99.90;;;;;;5011884;28;20107;-59
2024/01/31 12:02:45;;;;;;;8.70;5.43;;;;;;;;;;5015021;28;20137;-58
2024/01/31 12:05:11;;;;;;;10.70;5.65;;;;;;;;;;5009849;28;20033;-59
2024/01/31 12:07:37;;;;;;;9.18;4.82;;;7.00;99.90;;;;;;5013932;28;20060;-58
2024/01/31 12:10:04;;;;;;;8.50;5.20;;;;;;;;;;5016351;28;20065;-59
2024/01/31 12:12:31;;;;;;;9.38;5.50;;;;;;;;;;5013345;28;20049;-59
2024/01/31 12:14:57;;;;;;;9.00;5.05;;;;;;;;;;5015905;28;20068;-59
2024/01/31 12:17:24;;;;;;;8.70;5.20;;;;;;;;;;5010097;28;20095;-59
2024/01/31 12:19:51;;;;;;;8.02;4.78;;;;;;;;;;5016970;28;20052;-58
2024/01/31 12:22:17;;;;;;;8.82;5.03;;;;;;;;;;5013661;28;20046;-61
2024/01/31 12:24:44;;;;;;;8.98;5.15;;;6.90;99.90;;;;;;5009149;28;20107;-59
2024/01/31 12:27:10;;;;;;;8.38;5.22;;;;;;;;;;5011351;28;20033;-58
2024/01/31 12:29:36;;;;;;;8.45;4.65;;;;;;;;;;5013518;28;20064;-59
2024/01/31 12:32:02;;;;;;;8.82;4.82;;;;;;;;;;5012472;28;20045;-59
2024/01/31 12:34:28;;;;;;;8.65;5.00;;;;;;;;;;5014981;28;20033;-59
2024/01/31 12:36:54;;;;;;;8.77;5.53;;;;;;;;;;5012069;28;20413;-59
2024/01/31 12:39:20;;;;;;;10.00;5.93;;;;;;;;;;4989097;28;20339;-58
2024/01/31 12:41:52;;;;;;;10.68;6.20;;;;;;;;;;5007128;28;20054;-58
2024/01/31 12:44:18;;;;;;;11.52;7.18;;;;;;;;;;5009228;28;20178;-59
2024/01/31 12:46:44;;;;;;;11.80;7.05;;;;;;;;;;5007620;28;20391;-58
2024/01/31 12:49:09;;;;;;;12.07;6.95;;;7.30;99.90;;;;;;5005533;28;20037;-57
2024/01/31 12:51:35;;;;;;;12.27;7.53;;;;;;;;;;5009393;28;20045;-58
2024/01/31 12:54:01;;;;;;;11.63;7.90;;;;;;;;;;5007000;28;20033;-57
2024/01/31 12:56:28;;;;;;;11.13;7.63;;;;;;;;;;5015076;28;20041;-59
2024/01/31 12:58:56;;;;;;;10.18;6.60;;;;;;;;;;5009769;28;20068;-58
2024/01/31 13:01:22;;;;;;;12.05;7.68;;;;;;;;;;5018585;28;20434;-59
2024/01/31 13:03:48;;;;;;;13.32;7.63;;;7.30;99.90;;;;;;5008179;28;20058;-58
2024/01/31 13:06:14;;;;;;;11.25;6.85;;;7.20;99.90;;;;;;5004789;28;21788;-58
2024/01/31 13:08:40;;;;;;;12.70;6.75;;;;;;;;;;5006967;28;20037;-59
2024/01/31 13:11:09;;;;;;;11.80;7.25;;;;;;;;;;5010198;28;20073;-58
2024/01/31 13:13:38;;;;;;;12.82;7.82;;;6.90;99.90;;;;;;5012228;28;20060;-58
2024/01/31 13:16:04;;;;;;;10.93;6.63;;;;;;;;;;5006743;28;20046;-59
2024/01/31 13:18:30;;;;;;;11.95;6.85;;;;;;;;;;5014992;28;20501;-59
2024/01/31 13:20:56;;;;;;;13.35;8.40;;;;;;;;;;5014448;28;20136;-58
2024/01/31 13:23:22;;;;;;;12.27;7.53;;;;;;;;;;5016460;28;20068;-60
2024/01/31 13:25:49;;;;;;;13.07;8.27;;;;;;;;;;5011071;28;20057;-58
2024/01/31 13:28:16;;;;;;;12.18;7.45;;;;;;;;;;5012390;28;20052;-59
2024/01/31 13:30:43;;;;;;;14.15;8.18;;;;;;;;;;5013697;28;20124;-59
2024/01/31 13:33:09;;;;;;;11.30;7.10;;;;;;;;;;5011999;28;20038;-58
2024/01/31 13:35:34;;;;;;;12.10;8.30;;;7.10;99.90;;;;;;5009997;28;20569;-59
2024/01/31 13:38:00;;;;;;;13.15;7.38;;;;;;;;;;5013399;28;20120;-59
2024/01/31 13:40:26;;;;;;;12.90;7.95;;;;;;;;;;5016384;28;20124;-58
2024/01/31 13:42:52;;;;;;;11.65;7.20;;;;;;;;;;5009175;28;20433;-59
2024/01/31 13:45:19;;;;;;;13.52;7.55;;;6.80;99.90;;;;;;5012824;28;20512;-58
2024/01/31 13:47:45;;;;;;;13.13;8.50;;;;;;;;;;5010844;28;20560;-59
2024/01/31 13:50:14;;;;;;;13.70;7.70;;;;;;;;;;5010754;28;20052;-59
2024/01/31 13:52:40;;;;;;;12.38;8.20;;;;;;;;;;5006322;28;20044;-59
2024/01/31 13:55:07;;;;;;;12.82;8.18;;;7.40;99.90;;;;;;5010981;28;20077;-59
2024/01/31 13:57:32;;;;;;;15.00;8.48;;;7.00;99.90;;;;;;5014674;28;20107;-59
2024/01/31 13:59:58;;;;;;;13.80;9.05;;;;;;;;;;5013461;28;20517;-58
2024/01/31 14:02:25;;;;;;;15.82;8.27;;;;;;;;;;5010260;28;20078;-59
2024/01/31 14:04:50;;;;;;;13.20;7.93;;;7.00;99.90;;;;;;5006972;28;21217;-59
2024/01/31 14:07:16;;;;;;;14.43;8.45;;;7.00;99.90;;;;;;5015315;28;20049;-59
2024/01/31 14:09:42;;;;;;;11.80;8.20;;;;;;;;;;5007173;28;20052;-58
2024/01/31 14:12:08;;;;;;;15.95;8.80;;;;;;;;;;5006361;28;20417;-59